Salamis, Greece
Current Conditions -  °F | °C
As of 12:50 AM on Sunday 26 Oct 2014 (Local Time) from LGEL Reporting Station
Few Clouds Few Clouds  
Wind Chill: 57°   Ceiling: Unl
Heat Index: 57°   Visibility: 6mi
Dew Point: 45°   Wind: 9mph
Humidity: 63%   Direction: 310°NW
Pressure: 29.94"   Gusts: NA
Location:  37.97°N, 23.48°E
Report Text: LGEL 252150Z 31008KT 9999 FEW025 14/07 Q1014
Loading
Personal Weather Stations






























Interactive Weather Map
Tropical Storm Tracking
New forecast layout! Learn more

10-Day Weather Forecast

Advertisements
Track Severe Weather on mobile